sensor_id;sensor_type;location;lat;lon;timestamp;temperature;humidity
64685;DHT22;51109;47.414;18.954;2022-07-19T00:02:03;19.90;82.80
64685;DHT22;51109;47.414;18.954;2022-07-19T00:04:30;19.80;83.30
64685;DHT22;51109;47.414;18.954;2022-07-19T00:06:56;19.80;83.40
64685;DHT22;51109;47.414;18.954;2022-07-19T00:09:22;19.90;83.10
64685;DHT22;51109;47.414;18.954;2022-07-19T00:11:49;20.00;83.40
64685;DHT22;51109;47.414;18.954;2022-07-19T00:14:15;20.10;83.10
64685;DHT22;51109;47.414;18.954;2022-07-19T00:16:41;20.30;82.80
64685;DHT22;51109;47.414;18.954;2022-07-19T00:19:07;20.30;82.40
64685;DHT22;51109;47.414;18.954;2022-07-19T00:21:33;20.40;81.80
64685;DHT22;51109;47.414;18.954;2022-07-19T00:23:58;20.60;81.60
64685;DHT22;51109;47.414;18.954;2022-07-19T00:26:27;20.60;81.20
64685;DHT22;51109;47.414;18.954;2022-07-19T00:28:53;20.60;80.80
64685;DHT22;51109;47.414;18.954;2022-07-19T00:31:21;20.60;80.90
64685;DHT22;51109;47.414;18.954;2022-07-19T00:33:49;20.60;81.30
64685;DHT22;51109;47.414;18.954;2022-07-19T00:36:15;20.60;81.50
64685;DHT22;51109;47.414;18.954;2022-07-19T00:38:41;20.70;81.70
64685;DHT22;51109;47.414;18.954;2022-07-19T00:41:07;20.60;81.70
64685;DHT22;51109;47.414;18.954;2022-07-19T00:43:33;20.50;82.00
64685;DHT22;51109;47.414;18.954;2022-07-19T00:45:59;20.40;82.10
64685;DHT22;51109;47.414;18.954;2022-07-19T00:48:25;20.30;82.50
64685;DHT22;51109;47.414;18.954;2022-07-19T00:50:51;20.20;83.00
64685;DHT22;51109;47.414;18.954;2022-07-19T00:53:18;20.00;83.50
64685;DHT22;51109;47.414;18.954;2022-07-19T00:55:45;19.90;83.50
64685;DHT22;51109;47.414;18.954;2022-07-19T00:58:12;19.70;83.70
64685;DHT22;51109;47.414;18.954;2022-07-19T01:00:41;19.50;84.40
64685;DHT22;51109;47.414;18.954;2022-07-19T01:03:12;19.50;84.90
64685;DHT22;51109;47.414;18.954;2022-07-19T01:05:39;19.50;85.30
64685;DHT22;51109;47.414;18.954;2022-07-19T01:08:05;19.50;85.00
64685;DHT22;51109;47.414;18.954;2022-07-19T01:10:32;19.60;85.00
64685;DHT22;51109;47.414;18.954;2022-07-19T01:12:58;19.50;84.90
64685;DHT22;51109;47.414;18.954;2022-07-19T01:15:25;19.50;84.60
64685;DHT22;51109;47.414;18.954;2022-07-19T01:17:52;19.50;84.30
64685;DHT22;51109;47.414;18.954;2022-07-19T01:20:20;19.60;84.00
64685;DHT22;51109;47.414;18.954;2022-07-19T01:22:46;19.70;84.00
64685;DHT22;51109;47.414;18.954;2022-07-19T01:25:13;19.70;84.40
64685;DHT22;51109;47.414;18.954;2022-07-19T01:27:44;19.80;84.10
64685;DHT22;51109;47.414;18.954;2022-07-19T01:30:18;20.00;84.60
64685;DHT22;51109;47.414;18.954;2022-07-19T01:32:44;20.00;84.90
64685;DHT22;51109;47.414;18.954;2022-07-19T01:35:11;20.00;84.80
64685;DHT22;51109;47.414;18.954;2022-07-19T01:37:37;20.10;84.00
64685;DHT22;51109;47.414;18.954;2022-07-19T01:40:05;20.10;84.00
64685;DHT22;51109;47.414;18.954;2022-07-19T01:42:31;20.10;84.30
64685;DHT22;51109;47.414;18.954;2022-07-19T01:44:57;20.00;84.00
64685;DHT22;51109;47.414;18.954;2022-07-19T01:47:24;20.00;84.00
64685;DHT22;51109;47.414;18.954;2022-07-19T01:49:50;19.90;84.00
64685;DHT22;51109;47.414;18.954;2022-07-19T01:52:15;19.90;84.20
64685;DHT22;51109;47.414;18.954;2022-07-19T01:54:41;19.90;84.20
64685;DHT22;51109;47.414;18.954;2022-07-19T01:57:07;20.00;84.00
64685;DHT22;51109;47.414;18.954;2022-07-19T01:59:36;20.00;84.00
64685;DHT22;51109;47.414;18.954;2022-07-19T02:02:02;20.00;84.10
64685;DHT22;51109;47.414;18.954;2022-07-19T02:04:27;20.10;84.00
64685;DHT22;51109;47.414;18.954;2022-07-19T02:06:53;20.00;84.80
64685;DHT22;51109;47.414;18.954;2022-07-19T02:09:19;20.00;84.60
64685;DHT22;51109;47.414;18.954;2022-07-19T02:11:45;19.80;84.80
64685;DHT22;51109;47.414;18.954;2022-07-19T02:14:11;19.80;85.60
64685;DHT22;51109;47.414;18.954;2022-07-19T02:16:38;19.80;85.30
64685;DHT22;51109;47.414;18.954;2022-07-19T02:19:05;19.90;85.50
64685;DHT22;51109;47.414;18.954;2022-07-19T02:21:33;19.90;85.00
64685;DHT22;51109;47.414;18.954;2022-07-19T02:23:59;19.70;85.70
64685;DHT22;51109;47.414;18.954;2022-07-19T02:26:25;19.40;87.00
64685;DHT22;51109;47.414;18.954;2022-07-19T02:28:51;19.50;87.80
64685;DHT22;51109;47.414;18.954;2022-07-19T02:31:17;19.50;87.60
64685;DHT22;51109;47.414;18.954;2022-07-19T02:33:43;19.40;87.80
64685;DHT22;51109;47.414;18.954;2022-07-19T02:36:09;19.30;87.70
64685;DHT22;51109;47.414;18.954;2022-07-19T02:38:35;19.20;87.90
64685;DHT22;51109;47.414;18.954;2022-07-19T02:41:01;19.20;88.00
64685;DHT22;51109;47.414;18.954;2022-07-19T02:43:26;19.10;87.40
64685;DHT22;51109;47.414;18.954;2022-07-19T02:45:53;18.80;88.20
64685;DHT22;51109;47.414;18.954;2022-07-19T02:48:18;18.60;88.50
64685;DHT22;51109;47.414;18.954;2022-07-19T02:50:45;18.60;88.60
64685;DHT22;51109;47.414;18.954;2022-07-19T02:53:11;18.70;88.40
64685;DHT22;51109;47.414;18.954;2022-07-19T02:55:37;18.80;88.20
64685;DHT22;51109;47.414;18.954;2022-07-19T02:58:03;18.90;88.00
64685;DHT22;51109;47.414;18.954;2022-07-19T03:00:29;19.00;88.00
64685;DHT22;51109;47.414;18.954;2022-07-19T03:02:57;19.10;88.00
64685;DHT22;51109;47.414;18.954;2022-07-19T03:05:43;19.10;87.80
64685;DHT22;51109;47.414;18.954;2022-07-19T03:08:10;19.10;87.90
64685;DHT22;51109;47.414;18.954;2022-07-19T03:10:36;19.00;88.10
64685;DHT22;51109;47.414;18.954;2022-07-19T03:13:01;19.10;89.30
64685;DHT22;51109;47.414;18.954;2022-07-19T03:15:27;19.20;88.00
64685;DHT22;51109;47.414;18.954;2022-07-19T03:17:53;19.30;87.30
64685;DHT22;51109;47.414;18.954;2022-07-19T03:20:19;19.30;86.80
64685;DHT22;51109;47.414;18.954;2022-07-19T03:22:45;19.30;86.60
64685;DHT22;51109;47.414;18.954;2022-07-19T03:25:11;19.30;86.70
64685;DHT22;51109;47.414;18.954;2022-07-19T03:27:37;19.30;86.30
64685;DHT22;51109;47.414;18.954;2022-07-19T03:30:04;19.40;86.60
64685;DHT22;51109;47.414;18.954;2022-07-19T03:32:30;19.50;86.20
64685;DHT22;51109;47.414;18.954;2022-07-19T03:34:56;19.50;87.50
64685;DHT22;51109;47.414;18.954;2022-07-19T03:37:22;19.30;87.30
64685;DHT22;51109;47.414;18.954;2022-07-19T03:39:48;19.30;87.70
64685;DHT22;51109;47.414;18.954;2022-07-19T03:42:14;19.40;88.00
64685;DHT22;51109;47.414;18.954;2022-07-19T03:44:40;19.40;88.00
64685;DHT22;51109;47.414;18.954;2022-07-19T03:47:06;19.50;87.60
64685;DHT22;51109;47.414;18.954;2022-07-19T03:49:31;19.50;88.00
64685;DHT22;51109;47.414;18.954;2022-07-19T03:51:57;19.40;88.20
64685;DHT22;51109;47.414;18.954;2022-07-19T03:54:23;19.40;88.40
64685;DHT22;51109;47.414;18.954;2022-07-19T03:56:49;19.40;88.90
64685;DHT22;51109;47.414;18.954;2022-07-19T03:59:15;19.40;89.40
64685;DHT22;51109;47.414;18.954;2022-07-19T04:01:41;19.30;90.00
64685;DHT22;51109;47.414;18.954;2022-07-19T04:04:07;19.40;90.10
64685;DHT22;51109;47.414;18.954;2022-07-19T04:06:33;19.40;90.00
64685;DHT22;51109;47.414;18.954;2022-07-19T04:08:59;19.50;90.10
64685;DHT22;51109;47.414;18.954;2022-07-19T04:11:25;19.60;90.00
64685;DHT22;51109;47.414;18.954;2022-07-19T04:13:51;19.70;89.40
64685;DHT22;51109;47.414;18.954;2022-07-19T04:16:17;19.90;89.00
64685;DHT22;51109;47.414;18.954;2022-07-19T04:18:43;20.00;89.10
64685;DHT22;51109;47.414;18.954;2022-07-19T04:21:09;20.10;88.90
64685;DHT22;51109;47.414;18.954;2022-07-19T04:23:34;20.30;88.80
64685;DHT22;51109;47.414;18.954;2022-07-19T04:26:00;20.40;88.60
64685;DHT22;51109;47.414;18.954;2022-07-19T04:28:26;20.50;88.20
64685;DHT22;51109;47.414;18.954;2022-07-19T04:30:52;20.60;88.50
64685;DHT22;51109;47.414;18.954;2022-07-19T04:33:18;20.70;89.20
64685;DHT22;51109;47.414;18.954;2022-07-19T04:35:44;20.80;88.10
64685;DHT22;51109;47.414;18.954;2022-07-19T04:38:11;20.80;89.50
64685;DHT22;51109;47.414;18.954;2022-07-19T04:40:37;20.80;88.80
64685;DHT22;51109;47.414;18.954;2022-07-19T04:43:03;21.00;88.50
64685;DHT22;51109;47.414;18.954;2022-07-19T04:45:29;21.10;87.90
64685;DHT22;51109;47.414;18.954;2022-07-19T04:47:55;21.20;87.20
64685;DHT22;51109;47.414;18.954;2022-07-19T04:50:21;21.40;87.00
64685;DHT22;51109;47.414;18.954;2022-07-19T04:52:47;21.50;87.20
64685;DHT22;51109;47.414;18.954;2022-07-19T04:55:12;21.50;87.20
64685;DHT22;51109;47.414;18.954;2022-07-19T04:57:38;21.50;85.50
64685;DHT22;51109;47.414;18.954;2022-07-19T05:00:06;21.60;86.40
64685;DHT22;51109;47.414;18.954;2022-07-19T05:02:35;21.70;84.90
64685;DHT22;51109;47.414;18.954;2022-07-19T05:05:02;21.90;85.90
64685;DHT22;51109;47.414;18.954;2022-07-19T05:07:28;22.00;87.10
64685;DHT22;51109;47.414;18.954;2022-07-19T05:09:54;22.10;85.40
64685;DHT22;51109;47.414;18.954;2022-07-19T05:12:19;22.20;85.50
64685;DHT22;51109;47.414;18.954;2022-07-19T05:14:45;22.40;84.80
64685;DHT22;51109;47.414;18.954;2022-07-19T05:17:11;22.40;85.00
64685;DHT22;51109;47.414;18.954;2022-07-19T05:19:37;22.60;84.90
64685;DHT22;51109;47.414;18.954;2022-07-19T05:22:03;22.70;84.10
64685;DHT22;51109;47.414;18.954;2022-07-19T05:24:29;22.90;83.90
64685;DHT22;51109;47.414;18.954;2022-07-19T05:26:55;22.90;83.70
64685;DHT22;51109;47.414;18.954;2022-07-19T05:29:21;22.90;84.60
64685;DHT22;51109;47.414;18.954;2022-07-19T05:31:47;23.00;85.00
64685;DHT22;51109;47.414;18.954;2022-07-19T05:34:12;23.20;81.80
64685;DHT22;51109;47.414;18.954;2022-07-19T05:36:38;23.40;81.70
64685;DHT22;51109;47.414;18.954;2022-07-19T05:39:04;23.60;85.20
64685;DHT22;51109;47.414;18.954;2022-07-19T05:41:30;23.80;80.60
64685;DHT22;51109;47.414;18.954;2022-07-19T05:43:56;24.00;82.30
64685;DHT22;51109;47.414;18.954;2022-07-19T05:46:22;24.10;82.80
64685;DHT22;51109;47.414;18.954;2022-07-19T05:48:48;24.20;83.10
64685;DHT22;51109;47.414;18.954;2022-07-19T05:51:15;24.30;82.10
64685;DHT22;51109;47.414;18.954;2022-07-19T05:53:41;24.50;81.10
64685;DHT22;51109;47.414;18.954;2022-07-19T05:56:07;24.70;80.30
64685;DHT22;51109;47.414;18.954;2022-07-19T05:58:34;24.80;79.30
64685;DHT22;51109;47.414;18.954;2022-07-19T06:01:01;24.90;79.60
64685;DHT22;51109;47.414;18.954;2022-07-19T06:03:57;25.00;78.00
64685;DHT22;51109;47.414;18.954;2022-07-19T06:06:25;25.10;77.40
64685;DHT22;51109;47.414;18.954;2022-07-19T06:08:51;25.30;77.30
64685;DHT22;51109;47.414;18.954;2022-07-19T06:11:17;25.30;74.90
64685;DHT22;51109;47.414;18.954;2022-07-19T06:13:44;25.40;80.50
64685;DHT22;51109;47.414;18.954;2022-07-19T06:16:10;25.50;79.00
64685;DHT22;51109;47.414;18.954;2022-07-19T06:18:37;25.40;75.40
64685;DHT22;51109;47.414;18.954;2022-07-19T06:21:13;25.40;74.70
64685;DHT22;51109;47.414;18.954;2022-07-19T06:23:40;25.30;78.30
64685;DHT22;51109;47.414;18.954;2022-07-19T06:26:08;25.60;75.20
64685;DHT22;51109;47.414;18.954;2022-07-19T06:28:34;25.80;76.00
64685;DHT22;51109;47.414;18.954;2022-07-19T06:31:00;26.00;76.50
64685;DHT22;51109;47.414;18.954;2022-07-19T06:33:26;26.20;74.80
64685;DHT22;51109;47.414;18.954;2022-07-19T06:35:52;26.30;72.90
64685;DHT22;51109;47.414;18.954;2022-07-19T06:38:18;26.40;74.00
64685;DHT22;51109;47.414;18.954;2022-07-19T06:40:44;26.50;73.50
64685;DHT22;51109;47.414;18.954;2022-07-19T06:43:10;26.60;76.50
64685;DHT22;51109;47.414;18.954;2022-07-19T06:45:37;26.60;72.90
64685;DHT22;51109;47.414;18.954;2022-07-19T06:48:03;26.80;76.50
64685;DHT22;51109;47.414;18.954;2022-07-19T06:50:29;26.80;74.00
64685;DHT22;51109;47.414;18.954;2022-07-19T06:52:55;26.90;71.90
64685;DHT22;51109;47.414;18.954;2022-07-19T06:55:20;26.90;69.80
64685;DHT22;51109;47.414;18.954;2022-07-19T06:57:46;27.10;74.00
64685;DHT22;51109;47.414;18.954;2022-07-19T07:00:13;27.10;73.50
64685;DHT22;51109;47.414;18.954;2022-07-19T07:02:40;27.30;71.50
64685;DHT22;51109;47.414;18.954;2022-07-19T07:05:07;27.50;73.40
64685;DHT22;51109;47.414;18.954;2022-07-19T07:07:33;27.70;69.10
64685;DHT22;51109;47.414;18.954;2022-07-19T07:09:59;27.70;70.50
64685;DHT22;51109;47.414;18.954;2022-07-19T07:12:28;27.80;67.50
64685;DHT22;51109;47.414;18.954;2022-07-19T07:14:55;27.60;69.40
64685;DHT22;51109;47.414;18.954;2022-07-19T07:17:21;27.80;69.90
64685;DHT22;51109;47.414;18.954;2022-07-19T07:19:48;27.80;68.80
64685;DHT22;51109;47.414;18.954;2022-07-19T07:22:13;28.00;70.40
64685;DHT22;51109;47.414;18.954;2022-07-19T07:24:40;28.20;73.00
64685;DHT22;51109;47.414;18.954;2022-07-19T07:27:06;28.40;73.10
64685;DHT22;51109;47.414;18.954;2022-07-19T07:29:33;28.50;74.10
64685;DHT22;51109;47.414;18.954;2022-07-19T07:31:59;28.50;69.60
64685;DHT22;51109;47.414;18.954;2022-07-19T07:34:25;28.60;70.40
64685;DHT22;51109;47.414;18.954;2022-07-19T07:36:51;28.70;71.70
64685;DHT22;51109;47.414;18.954;2022-07-19T07:39:17;28.60;69.30
64685;DHT22;51109;47.414;18.954;2022-07-19T07:41:43;28.60;71.40
64685;DHT22;51109;47.414;18.954;2022-07-19T07:44:09;28.50;70.80
64685;DHT22;51109;47.414;18.954;2022-07-19T07:46:35;28.50;72.20
64685;DHT22;51109;47.414;18.954;2022-07-19T07:49:01;28.70;72.30
64685;DHT22;51109;47.414;18.954;2022-07-19T07:51:28;28.70;71.70
64685;DHT22;51109;47.414;18.954;2022-07-19T07:53:54;28.60;71.30
64685;DHT22;51109;47.414;18.954;2022-07-19T07:56:20;28.80;73.60
64685;DHT22;51109;47.414;18.954;2022-07-19T07:58:46;28.70;70.90
64685;DHT22;51109;47.414;18.954;2022-07-19T08:01:12;28.80;70.30
64685;DHT22;51109;47.414;18.954;2022-07-19T08:03:37;29.00;70.00
64685;DHT22;51109;47.414;18.954;2022-07-19T08:06:04;29.00;70.30
64685;DHT22;51109;47.414;18.954;2022-07-19T08:08:30;29.00;69.20
64685;DHT22;51109;47.414;18.954;2022-07-19T08:10:56;29.20;70.40
64685;DHT22;51109;47.414;18.954;2022-07-19T08:13:22;29.30;69.00
64685;DHT22;51109;47.414;18.954;2022-07-19T08:15:49;29.50;71.40
64685;DHT22;51109;47.414;18.954;2022-07-19T08:18:16;29.60;70.50
64685;DHT22;51109;47.414;18.954;2022-07-19T08:20:43;29.80;70.60
64685;DHT22;51109;47.414;18.954;2022-07-19T08:23:09;29.90;70.00
64685;DHT22;51109;47.414;18.954;2022-07-19T08:25:35;30.10;69.60
64685;DHT22;51109;47.414;18.954;2022-07-19T08:28:03;30.20;69.40
64685;DHT22;51109;47.414;18.954;2022-07-19T08:30:29;30.20;68.70
64685;DHT22;51109;47.414;18.954;2022-07-19T08:32:55;30.30;69.10
64685;DHT22;51109;47.414;18.954;2022-07-19T08:35:21;30.40;67.70
64685;DHT22;51109;47.414;18.954;2022-07-19T08:37:47;30.00;69.70
64685;DHT22;51109;47.414;18.954;2022-07-19T08:40:13;30.10;66.60
64685;DHT22;51109;47.414;18.954;2022-07-19T08:42:41;30.10;66.00
64685;DHT22;51109;47.414;18.954;2022-07-19T08:45:09;30.20;66.00
64685;DHT22;51109;47.414;18.954;2022-07-19T08:47:36;30.20;64.80
64685;DHT22;51109;47.414;18.954;2022-07-19T08:50:05;30.40;64.00
64685;DHT22;51109;47.414;18.954;2022-07-19T08:52:35;30.50;65.30
64685;DHT22;51109;47.414;18.954;2022-07-19T08:55:01;30.50;67.90
64685;DHT22;51109;47.414;18.954;2022-07-19T08:57:27;30.70;64.10
64685;DHT22;51109;47.414;18.954;2022-07-19T09:00:12;30.70;63.30
64685;DHT22;51109;47.414;18.954;2022-07-19T09:02:39;30.70;66.40
64685;DHT22;51109;47.414;18.954;2022-07-19T09:05:08;30.70;62.10
64685;DHT22;51109;47.414;18.954;2022-07-19T09:07:38;30.80;65.40
64685;DHT22;51109;47.414;18.954;2022-07-19T09:10:19;30.90;62.70
64685;DHT22;51109;47.414;18.954;2022-07-19T09:13:17;30.90;63.90
64685;DHT22;51109;47.414;18.954;2022-07-19T09:15:50;30.70;61.60
64685;DHT22;51109;47.414;18.954;2022-07-19T09:18:20;30.80;66.20
64685;DHT22;51109;47.414;18.954;2022-07-19T09:20:48;30.90;62.60
64685;DHT22;51109;47.414;18.954;2022-07-19T09:23:15;31.00;63.60
64685;DHT22;51109;47.414;18.954;2022-07-19T09:25:47;31.00;61.70
64685;DHT22;51109;47.414;18.954;2022-07-19T09:28:18;30.80;61.10
64685;DHT22;51109;47.414;18.954;2022-07-19T09:30:46;30.70;63.30
64685;DHT22;51109;47.414;18.954;2022-07-19T09:33:16;30.90;63.50
64685;DHT22;51109;47.414;18.954;2022-07-19T09:35:48;30.90;62.30
64685;DHT22;51109;47.414;18.954;2022-07-19T09:40:51;31.00;62.00
64685;DHT22;51109;47.414;18.954;2022-07-19T09:43:18;31.10;61.80
64685;DHT22;51109;47.414;18.954;2022-07-19T09:45:45;31.30;61.90
64685;DHT22;51109;47.414;18.954;2022-07-19T09:48:11;31.50;64.40
64685;DHT22;51109;47.414;18.954;2022-07-19T09:50:37;31.30;67.80
64685;DHT22;51109;47.414;18.954;2022-07-19T09:53:05;31.40;60.80
64685;DHT22;51109;47.414;18.954;2022-07-19T09:55:31;31.40;62.40
64685;DHT22;51109;47.414;18.954;2022-07-19T09:57:59;31.40;62.70
64685;DHT22;51109;47.414;18.954;2022-07-19T10:00:27;31.40;62.60
64685;DHT22;51109;47.414;18.954;2022-07-19T10:03:00;31.40;63.00
64685;DHT22;51109;47.414;18.954;2022-07-19T10:05:28;31.50;65.90
64685;DHT22;51109;47.414;18.954;2022-07-19T10:07:55;31.50;62.40
64685;DHT22;51109;47.414;18.954;2022-07-19T10:10:22;31.60;61.20
64685;DHT22;51109;47.414;18.954;2022-07-19T10:12:49;31.50;60.50
64685;DHT22;51109;47.414;18.954;2022-07-19T10:15:17;31.70;61.00
64685;DHT22;51109;47.414;18.954;2022-07-19T10:18:09;31.70;61.30
64685;DHT22;51109;47.414;18.954;2022-07-19T10:20:37;32.00;62.90
64685;DHT22;51109;47.414;18.954;2022-07-19T10:23:04;32.00;61.70
64685;DHT22;51109;47.414;18.954;2022-07-19T10:25:42;32.10;62.30
64685;DHT22;51109;47.414;18.954;2022-07-19T10:28:29;32.30;62.10
64685;DHT22;51109;47.414;18.954;2022-07-19T10:30:55;32.20;61.00
64685;DHT22;51109;47.414;18.954;2022-07-19T10:33:40;32.30;59.70
64685;DHT22;51109;47.414;18.954;2022-07-19T10:36:38;32.30;62.40
64685;DHT22;51109;47.414;18.954;2022-07-19T10:42:12;32.50;61.20
64685;DHT22;51109;47.414;18.954;2022-07-19T10:52:36;32.30;60.80
64685;DHT22;51109;47.414;18.954;2022-07-19T11:00:39;32.60;60.10
64685;DHT22;51109;47.414;18.954;2022-07-19T11:06:03;32.60;60.20
64685;DHT22;51109;47.414;18.954;2022-07-19T11:08:40;32.60;59.70
64685;DHT22;51109;47.414;18.954;2022-07-19T11:11:15;32.70;61.20
64685;DHT22;51109;47.414;18.954;2022-07-19T11:13:49;32.70;62.20
64685;DHT22;51109;47.414;18.954;2022-07-19T11:16:15;32.70;59.30
64685;DHT22;51109;47.414;18.954;2022-07-19T11:18:42;32.80;61.60
64685;DHT22;51109;47.414;18.954;2022-07-19T11:21:10;32.90;60.20
64685;DHT22;51109;47.414;18.954;2022-07-19T11:23:38;32.80;63.40
64685;DHT22;51109;47.414;18.954;2022-07-19T11:26:18;32.50;61.60
64685;DHT22;51109;47.414;18.954;2022-07-19T11:28:47;32.20;65.30
64685;DHT22;51109;47.414;18.954;2022-07-19T11:31:21;32.20;59.50
64685;DHT22;51109;47.414;18.954;2022-07-19T11:33:49;32.20;58.90
64685;DHT22;51109;47.414;18.954;2022-07-19T11:36:17;32.20;58.40
64685;DHT22;51109;47.414;18.954;2022-07-19T11:38:46;32.30;62.20
64685;DHT22;51109;47.414;18.954;2022-07-19T11:41:13;32.10;59.10
64685;DHT22;51109;47.414;18.954;2022-07-19T11:43:40;31.80;58.50
64685;DHT22;51109;47.414;18.954;2022-07-19T11:46:06;31.80;67.40
64685;DHT22;51109;47.414;18.954;2022-07-19T11:48:32;32.00;65.40
64685;DHT22;51109;47.414;18.954;2022-07-19T11:51:02;32.20;63.00
64685;DHT22;51109;47.414;18.954;2022-07-19T11:53:29;32.30;60.90
64685;DHT22;51109;47.414;18.954;2022-07-19T11:55:55;32.40;60.30
64685;DHT22;51109;47.414;18.954;2022-07-19T11:58:23;32.60;61.70
64685;DHT22;51109;47.414;18.954;2022-07-19T12:00:49;32.70;60.30
64685;DHT22;51109;47.414;18.954;2022-07-19T12:03:17;32.80;59.00
64685;DHT22;51109;47.414;18.954;2022-07-19T12:06:06;33.00;59.70
64685;DHT22;51109;47.414;18.954;2022-07-19T12:08:38;33.10;61.20
64685;DHT22;51109;47.414;18.954;2022-07-19T12:11:25;32.90;57.40
64685;DHT22;51109;47.414;18.954;2022-07-19T12:13:53;32.30;59.40
64685;DHT22;51109;47.414;18.954;2022-07-19T12:16:21;32.20;60.20
64685;DHT22;51109;47.414;18.954;2022-07-19T12:24:14;32.70;61.00
64685;DHT22;51109;47.414;18.954;2022-07-19T12:26:43;33.00;58.50
64685;DHT22;51109;47.414;18.954;2022-07-19T12:29:17;33.00;58.60
64685;DHT22;51109;47.414;18.954;2022-07-19T12:31:47;33.20;59.30
64685;DHT22;51109;47.414;18.954;2022-07-19T12:34:14;33.40;59.30
64685;DHT22;51109;47.414;18.954;2022-07-19T12:36:40;33.40;57.90
64685;DHT22;51109;47.414;18.954;2022-07-19T12:41:58;33.40;57.60
64685;DHT22;51109;47.414;18.954;2022-07-19T12:44:25;33.30;57.90
64685;DHT22;51109;47.414;18.954;2022-07-19T12:46:51;33.30;57.40
64685;DHT22;51109;47.414;18.954;2022-07-19T12:49:17;33.40;62.80
64685;DHT22;51109;47.414;18.954;2022-07-19T12:51:43;33.40;58.40
64685;DHT22;51109;47.414;18.954;2022-07-19T12:54:13;33.50;58.40
64685;DHT22;51109;47.414;18.954;2022-07-19T12:56:39;33.40;59.00
64685;DHT22;51109;47.414;18.954;2022-07-19T12:59:06;33.30;60.80
64685;DHT22;51109;47.414;18.954;2022-07-19T13:01:51;33.30;58.40
64685;DHT22;51109;47.414;18.954;2022-07-19T13:04:17;33.30;58.80
64685;DHT22;51109;47.414;18.954;2022-07-19T13:06:43;33.20;58.30
64685;DHT22;51109;47.414;18.954;2022-07-19T13:09:08;33.30;57.00
64685;DHT22;51109;47.414;18.954;2022-07-19T13:11:36;32.90;56.40
64685;DHT22;51109;47.414;18.954;2022-07-19T13:14:02;32.90;58.10
64685;DHT22;51109;47.414;18.954;2022-07-19T13:16:32;32.90;57.50
64685;DHT22;51109;47.414;18.954;2022-07-19T13:18:58;32.90;59.30
64685;DHT22;51109;47.414;18.954;2022-07-19T13:21:24;33.10;58.70
64685;DHT22;51109;47.414;18.954;2022-07-19T13:23:50;33.30;57.50
64685;DHT22;51109;47.414;18.954;2022-07-19T13:26:15;33.40;58.60
64685;DHT22;51109;47.414;18.954;2022-07-19T13:28:42;33.30;57.30
64685;DHT22;51109;47.414;18.954;2022-07-19T13:31:08;33.50;58.40
64685;DHT22;51109;47.414;18.954;2022-07-19T13:33:34;33.60;57.10
64685;DHT22;51109;47.414;18.954;2022-07-19T13:36:00;33.60;57.50
64685;DHT22;51109;47.414;18.954;2022-07-19T13:38:26;33.70;56.10
64685;DHT22;51109;47.414;18.954;2022-07-19T13:40:52;33.60;56.40
64685;DHT22;51109;47.414;18.954;2022-07-19T13:43:18;33.50;57.00
64685;DHT22;51109;47.414;18.954;2022-07-19T13:45:43;33.70;58.90
64685;DHT22;51109;47.414;18.954;2022-07-19T13:48:09;33.90;57.20
64685;DHT22;51109;47.414;18.954;2022-07-19T13:50:37;34.10;55.40
64685;DHT22;51109;47.414;18.954;2022-07-19T13:53:03;33.70;56.50
64685;DHT22;51109;47.414;18.954;2022-07-19T13:55:29;33.60;56.50
64685;DHT22;51109;47.414;18.954;2022-07-19T13:57:55;33.70;55.70
64685;DHT22;51109;47.414;18.954;2022-07-19T14:00:21;33.70;57.00
64685;DHT22;51109;47.414;18.954;2022-07-19T14:02:47;33.90;56.00
64685;DHT22;51109;47.414;18.954;2022-07-19T14:05:14;34.10;56.80
64685;DHT22;51109;47.414;18.954;2022-07-19T14:07:41;34.20;55.60
64685;DHT22;51109;47.414;18.954;2022-07-19T14:10:07;34.40;57.00
64685;DHT22;51109;47.414;18.954;2022-07-19T14:12:33;34.40;56.00
64685;DHT22;51109;47.414;18.954;2022-07-19T14:14:59;34.50;56.80
64685;DHT22;51109;47.414;18.954;2022-07-19T14:17:25;34.60;54.80
64685;DHT22;51109;47.414;18.954;2022-07-19T14:19:51;34.60;54.70
64685;DHT22;51109;47.414;18.954;2022-07-19T14:22:17;34.50;57.00
64685;DHT22;51109;47.414;18.954;2022-07-19T14:24:43;34.60;56.80
64685;DHT22;51109;47.414;18.954;2022-07-19T14:27:09;34.70;55.70
64685;DHT22;51109;47.414;18.954;2022-07-19T14:29:36;34.80;57.00
64685;DHT22;51109;47.414;18.954;2022-07-19T14:32:02;35.00;56.50
64685;DHT22;51109;47.414;18.954;2022-07-19T14:34:28;35.20;56.10
64685;DHT22;51109;47.414;18.954;2022-07-19T14:36:54;35.30;55.40
64685;DHT22;51109;47.414;18.954;2022-07-19T14:39:20;35.30;55.30
64685;DHT22;51109;47.414;18.954;2022-07-19T14:41:46;35.30;54.10
64685;DHT22;51109;47.414;18.954;2022-07-19T14:44:12;35.00;53.80
64685;DHT22;51109;47.414;18.954;2022-07-19T14:46:38;34.40;54.70
64685;DHT22;51109;47.414;18.954;2022-07-19T14:49:04;34.50;54.80
64685;DHT22;51109;47.414;18.954;2022-07-19T14:51:29;34.60;55.40
64685;DHT22;51109;47.414;18.954;2022-07-19T14:53:55;34.70;55.10
64685;DHT22;51109;47.414;18.954;2022-07-19T14:56:21;34.60;54.10
64685;DHT22;51109;47.414;18.954;2022-07-19T14:58:48;34.60;56.40
64685;DHT22;51109;47.414;18.954;2022-07-19T15:01:13;34.80;55.80
64685;DHT22;51109;47.414;18.954;2022-07-19T15:03:39;35.00;55.00
64685;DHT22;51109;47.414;18.954;2022-07-19T15:06:05;34.90;55.20
64685;DHT22;51109;47.414;18.954;2022-07-19T15:08:31;35.20;55.60
64685;DHT22;51109;47.414;18.954;2022-07-19T15:10:57;35.40;56.50
64685;DHT22;51109;47.414;18.954;2022-07-19T15:13:23;35.40;54.20
64685;DHT22;51109;47.414;18.954;2022-07-19T15:15:49;35.30;55.10
64685;DHT22;51109;47.414;18.954;2022-07-19T15:18:15;35.40;54.00
64685;DHT22;51109;47.414;18.954;2022-07-19T15:20:41;35.30;54.20
64685;DHT22;51109;47.414;18.954;2022-07-19T15:23:07;35.50;54.40
64685;DHT22;51109;47.414;18.954;2022-07-19T15:25:32;35.60;53.00
64685;DHT22;51109;47.414;18.954;2022-07-19T15:27:58;35.50;53.80
64685;DHT22;51109;47.414;18.954;2022-07-19T15:30:24;35.50;53.20
64685;DHT22;51109;47.414;18.954;2022-07-19T15:32:50;35.70;52.60
64685;DHT22;51109;47.414;18.954;2022-07-19T15:35:16;35.70;53.20
64685;DHT22;51109;47.414;18.954;2022-07-19T15:37:42;36.00;52.90
64685;DHT22;51109;47.414;18.954;2022-07-19T15:40:09;36.20;52.90
64685;DHT22;51109;47.414;18.954;2022-07-19T15:42:43;36.20;53.10
64685;DHT22;51109;47.414;18.954;2022-07-19T15:45:09;36.40;53.80
64685;DHT22;51109;47.414;18.954;2022-07-19T15:47:35;36.50;52.70